createdAt,value
2022-08-05T00:01:27.801Z,96300.66
2022-08-05T00:03:57.251Z,96299.19
2022-08-05T00:06:32.366Z,96299.77
2022-08-05T00:09:00.889Z,96297.41
2022-08-05T00:11:34.633Z,96296.61
2022-08-05T00:14:12.089Z,96295.84
2022-08-05T00:16:53.044Z,96295.60
2022-08-05T00:19:22.467Z,96291.75
2022-08-05T00:21:49.913Z,96291.75
2022-08-05T00:24:19.134Z,96288.43
2022-08-05T00:26:53.067Z,96286.04
2022-08-05T00:29:25.541Z,96283.92
2022-08-05T00:32:12.262Z,96283.38
2022-08-05T00:34:55.196Z,96282.34
2022-08-05T00:37:35.296Z,96289.44
2022-08-05T00:40:17.850Z,96282.53
2022-08-05T00:42:58.484Z,96284.54
2022-08-05T00:45:38.695Z,96283.35
2022-08-05T00:48:16.907Z,96282.09
2022-08-05T00:50:46.126Z,96282.23
2022-08-05T00:53:44.873Z,96279.15
2022-08-05T00:56:03.511Z,96276.65
2022-08-05T00:58:30.171Z,96281.04
2022-08-05T01:00:56.925Z,96282.06
2022-08-05T01:03:25.321Z,96277.98
2022-08-05T01:06:00.041Z,96273.44
2022-08-05T01:08:30.624Z,96273.27
2022-08-05T01:11:33.667Z,96269.06
2022-08-05T01:14:28.070Z,96266.21
2022-08-05T01:17:13.442Z,96265.73
2022-08-05T01:20:02.027Z,96265.41
2022-08-05T01:22:48.722Z,96261.16
2022-08-05T01:25:40.554Z,96256.85
2022-08-05T01:28:32.064Z,96255.92
2022-08-05T01:31:27.447Z,96255.35
2022-08-05T01:34:09.669Z,96258.04
2022-08-05T01:36:48.802Z,96255.01
2022-08-05T01:39:45.693Z,96250.25
2022-08-05T01:42:06.222Z,96246.24
2022-08-05T01:44:37.319Z,96244.86
2022-08-05T01:47:06.798Z,96247.70
2022-08-05T01:50:01.906Z,96242.38
2022-08-05T01:52:28.308Z,96248.43
2022-08-05T01:55:01.999Z,96244.98
2022-08-05T01:58:10.296Z,96243.28
2022-08-05T02:00:29.957Z,96241.16
2022-08-05T02:03:03.843Z,96240.41
2022-08-05T02:05:35.964Z,96236.04
2022-08-05T02:08:05.051Z,96234.11
2022-08-05T02:10:42.582Z,96237.20
2022-08-05T02:13:53.394Z,96234.35
2022-08-05T02:16:38.735Z,96228.73
2022-08-05T02:19:17.183Z,96225.05
2022-08-05T02:21:57.819Z,96221.04
2022-08-05T02:24:31.761Z,96218.66
2022-08-05T02:27:10.416Z,96219.39
2022-08-05T02:29:58.809Z,96220.19
2022-08-05T02:32:31.641Z,96214.96
2022-08-05T02:35:09.561Z,96214.24
2022-08-05T02:37:46.542Z,96216.40
2022-08-05T02:40:22.454Z,96215.88
2022-08-05T02:42:52.678Z,96212.86
2022-08-05T02:45:23.838Z,96211.13
2022-08-05T02:48:07.496Z,96212.89
2022-08-05T02:50:45.446Z,96214.36
2022-08-05T02:53:16.189Z,96214.23
2022-08-05T02:55:54.139Z,96215.06
2022-08-05T02:58:28.767Z,96212.48
2022-08-05T03:01:01.806Z,96213.33
2022-08-05T03:03:33.805Z,96213.44
2022-08-05T03:06:55.960Z,96213.67
2022-08-05T03:08:52.147Z,96212.73
2022-08-05T03:11:55.351Z,96212.20
2022-08-05T03:14:09.607Z,96208.04
2022-08-05T03:16:40.864Z,96203.83
2022-08-05T03:19:17.123Z,96202.66
2022-08-05T03:21:54.434Z,96202.73
2022-08-05T03:24:29.365Z,96204.97
2022-08-05T03:26:59.364Z,96203.86
2022-08-05T03:29:45.634Z,96205.56
2022-08-05T03:32:19.340Z,96200.77
2022-08-05T03:34:50.560Z,96200.11
2022-08-05T03:37:20.055Z,96196.76
2022-08-05T03:40:00.797Z,96195.89
2022-08-05T03:42:29.422Z,96198.45
2022-08-05T03:45:01.796Z,96194.27
2022-08-05T03:47:46.878Z,96196.20
2022-08-05T03:50:16.401Z,96193.30
2022-08-05T03:55:51.580Z,96193.73
2022-08-05T03:56:17.165Z,96201.45
2022-08-05T03:58:48.101Z,96199.27
2022-08-05T04:01:20.739Z,96204.38
2022-08-05T04:04:08.883Z,96205.93
2022-08-05T04:06:37.489Z,96202.59
2022-08-05T04:09:08.171Z,96198.58
2022-08-05T04:11:47.256Z,96198.90
2022-08-05T04:14:17.856Z,96198.08
2022-08-05T04:16:45.383Z,96194.67
2022-08-05T04:19:12.702Z,96195.14
2022-08-05T04:22:08.613Z,96195.11
2022-08-05T04:24:27.726Z,96189.02
2022-08-05T04:26:54.684Z,96191.05
2022-08-05T04:29:24.988Z,96189.86
2022-08-05T04:31:53.963Z,96189.27
2022-08-05T04:34:32.455Z,96190.64
2022-08-05T04:37:03.082Z,96189.14
2022-08-05T04:39:31.060Z,96186.92
2022-08-05T04:41:59.641Z,96191.40
2022-08-05T04:44:30.133Z,96189.92
2022-08-05T04:46:58.997Z,96188.56
2022-08-05T04:49:38.965Z,96190.95
2022-08-05T04:52:14.440Z,96189.41
2022-08-05T04:54:42.010Z,96187.44
2022-08-05T04:57:08.715Z,96190.14
2022-08-05T04:59:38.432Z,96186.27
2022-08-05T05:02:41.554Z,96185.20
2022-08-05T05:05:01.815Z,96182.20
2022-08-05T05:07:32.463Z,96182.04
2022-08-05T05:10:03.674Z,96181.55
2022-08-05T05:12:30.553Z,96183.65
2022-08-05T05:14:57.262Z,96185.48
2022-08-05T05:17:55.864Z,96188.59
2022-08-05T05:20:12.472Z,96181.89
2022-08-05T05:22:40.909Z,96177.67
2022-08-05T05:25:16.158Z,96175.77
2022-08-05T05:27:48.517Z,96177.65
2022-08-05T05:30:30.941Z,96180.47
2022-08-05T05:33:09.310Z,96179.05
2022-08-05T05:35:47.658Z,96181.98
2022-08-05T05:38:22.775Z,96182.71
2022-08-05T05:40:57.345Z,96181.75
2022-08-05T05:43:54.065Z,96182.46
2022-08-05T05:46:17.238Z,96181.61
2022-08-05T05:48:48.262Z,96182.71
2022-08-05T05:51:20.552Z,96182.70
2022-08-05T05:53:57.126Z,96183.99
2022-08-05T05:56:32.197Z,96188.08
2022-08-05T05:59:06.209Z,96184.86
2022-08-05T06:01:37.038Z,96182.40
2022-08-05T06:04:11.357Z,96181.70
2022-08-05T06:06:43.365Z,96179.98
2022-08-05T06:09:16.732Z,96176.13
2022-08-05T06:11:59.623Z,96178.74
2022-08-05T06:14:33.338Z,96180.55
2022-08-05T06:17:21.668Z,96179.88
2022-08-05T06:19:56.603Z,96181.19
2022-08-05T06:22:29.391Z,96179.52
2022-08-05T06:24:57.133Z,96182.36
2022-08-05T06:28:11.727Z,96178.71
2022-08-05T06:30:20.238Z,96183.26
2022-08-05T06:32:48.593Z,96182.24
2022-08-05T06:36:01.991Z,96183.07
2022-08-05T06:38:11.403Z,96185.58
2022-08-05T06:40:42.236Z,96183.80
2022-08-05T06:43:51.588Z,96182.09
2022-08-05T06:46:04.276Z,96182.91
2022-08-05T06:48:52.993Z,96181.55
2022-08-05T06:51:29.292Z,96179.78
2022-08-05T06:53:59.053Z,96174.38
2022-08-05T06:56:27.276Z,96176.91
2022-08-05T06:58:55.952Z,96171.85
2022-08-05T07:01:27.628Z,96166.00
2022-08-05T07:04:01.286Z,96163.42
2022-08-05T07:06:28.982Z,96164.79
2022-08-05T07:08:56.030Z,96161.11
2022-08-05T07:11:28.389Z,96161.69
2022-08-05T07:14:15.330Z,96162.17
2022-08-05T07:18:01.765Z,96162.91
2022-08-05T07:22:28.421Z,96166.50
2022-08-05T07:25:22.921Z,96163.52
2022-08-05T07:28:00.072Z,96166.50
2022-08-05T07:30:33.919Z,96167.37
2022-08-05T07:33:05.077Z,96165.88
2022-08-05T07:36:02.938Z,96171.64
2022-08-05T07:38:26.422Z,96172.38
2022-08-05T07:42:07.881Z,96172.34
2022-08-05T07:44:05.654Z,96177.08
2022-08-05T07:46:41.457Z,96178.77
2022-08-05T07:49:15.602Z,96178.30
2022-08-05T07:51:54.286Z,96178.08
2022-08-05T07:54:26.589Z,96177.06
2022-08-05T07:57:01.913Z,96178.83
2022-08-05T07:59:42.374Z,96178.04
2022-08-05T08:02:16.870Z,96176.93
2022-08-05T08:04:48.607Z,96171.48
2022-08-05T08:07:22.657Z,96169.99
2022-08-05T08:09:52.535Z,96161.30
2022-08-05T08:12:35.585Z,96160.80
2022-08-05T08:15:14.018Z,96164.77
2022-08-05T08:17:49.681Z,96168.13
2022-08-05T08:21:00.613Z,96168.54
2022-08-05T08:24:00.010Z,96169.19
2022-08-05T08:25:59.961Z,96173.49
2022-08-05T08:28:37.139Z,96174.73
2022-08-05T08:31:14.569Z,96180.14
2022-08-05T08:33:45.904Z,96175.95
2022-08-05T08:36:38.918Z,96178.00
2022-08-05T08:39:01.669Z,96174.02
2022-08-05T08:41:52.009Z,96173.75
2022-08-05T08:45:17.009Z,96175.54
2022-08-05T08:47:46.939Z,96174.77
2022-08-05T08:50:23.391Z,96176.25
2022-08-05T08:52:52.976Z,96177.16
2022-08-05T08:56:03.140Z,96180.42
2022-08-05T08:58:13.263Z,96184.09
2022-08-05T09:00:42.057Z,96182.04
2022-08-05T09:03:16.285Z,96180.45
2022-08-05T09:06:07.524Z,96178.44
2022-08-05T09:08:35.176Z,96182.28
2022-08-05T09:11:08.145Z,96188.59
2022-08-05T09:13:50.701Z,96187.41
2022-08-05T09:16:27.080Z,96185.90
2022-08-05T09:18:55.509Z,96182.69
2022-08-05T09:22:22.777Z,96181.00
2022-08-05T09:24:12.583Z,96182.35
2022-08-05T09:26:39.455Z,96179.56
2022-08-05T09:29:10.589Z,96179.38
2022-08-05T09:32:45.790Z,96179.73
2022-08-05T09:34:54.705Z,96176.67
2022-08-05T09:38:16.403Z,96177.31
2022-08-05T09:40:32.966Z,96181.33
2022-08-05T09:43:00.965Z,96178.05
2022-08-05T09:46:06.465Z,96175.48
2022-08-05T09:48:30.823Z,96171.54
2022-08-05T09:51:14.791Z,96169.16
2022-08-05T09:53:54.023Z,96166.98
2022-08-05T09:56:27.022Z,96165.34
2022-08-05T09:58:57.692Z,96160.70
2022-08-05T10:01:32.390Z,96159.35
2022-08-05T10:04:03.107Z,96160.07
2022-08-05T10:06:34.028Z,96157.08
2022-08-05T10:09:24.984Z,96157.14
2022-08-05T10:12:30.319Z,96159.45
2022-08-05T10:15:17.142Z,96154.30
2022-08-05T10:18:05.585Z,96155.05
2022-08-05T10:20:36.692Z,96160.44
2022-08-05T10:23:08.893Z,96160.33
2022-08-05T10:25:59.059Z,96158.48
2022-08-05T10:28:30.545Z,96159.55
2022-08-05T10:32:53.684Z,96160.91
2022-08-05T10:33:54.278Z,96158.31
2022-08-05T10:36:23.662Z,96153.89
2022-08-05T10:39:05.047Z,96152.80
2022-08-05T10:42:01.168Z,96153.88
2022-08-05T10:44:30.870Z,96149.48
2022-08-05T10:46:57.622Z,96143.15
2022-08-05T10:49:27.068Z,96141.98
2022-08-05T10:52:02.524Z,96139.39
2022-08-05T10:55:03.194Z,96141.10
2022-08-05T10:57:32.267Z,96137.71
2022-08-05T11:00:20.554Z,96136.33
2022-08-05T11:03:25.348Z,96134.44
2022-08-05T11:06:14.706Z,96134.27
2022-08-05T11:09:16.291Z,96129.73
2022-08-05T11:11:52.461Z,96130.04
2022-08-05T11:15:01.525Z,96132.09
2022-08-05T11:17:57.836Z,96128.77
2022-08-05T11:20:41.726Z,96127.31
2022-08-05T11:24:05.353Z,96124.39
2022-08-05T11:26:43.353Z,96122.39
2022-08-05T11:29:41.620Z,96119.93
2022-08-05T11:32:29.469Z,96117.95
2022-08-05T11:34:57.318Z,96122.27
2022-08-05T11:38:30.350Z,96121.52
2022-08-05T11:41:01.755Z,96115.40
2022-08-05T11:44:06.251Z,96120.70
2022-08-05T11:47:09.252Z,96121.36
2022-08-05T11:49:33.936Z,96119.00
2022-08-05T11:52:01.528Z,96123.27
2022-08-05T11:54:37.519Z,96122.21
2022-08-05T11:57:08.482Z,96120.50
2022-08-05T11:59:51.795Z,96118.81
2022-08-05T12:02:31.671Z,96114.18
2022-08-05T12:05:07.850Z,96119.94
2022-08-05T12:08:03.664Z,96113.86
2022-08-05T12:10:38.621Z,96112.45
2022-08-05T12:13:27.888Z,96114.20
2022-08-05T12:16:14.911Z,96108.50
2022-08-05T12:18:52.697Z,96107.55
2022-08-05T12:21:30.176Z,96100.74
2022-08-05T12:24:06.794Z,96103.94
2022-08-05T12:26:38.936Z,96102.55
2022-08-05T12:29:11.889Z,96102.52
2022-08-05T12:31:54.401Z,96102.79
2022-08-05T12:34:27.621Z,96102.61
2022-08-05T12:36:56.635Z,96103.75
2022-08-05T12:39:27.925Z,96099.12
2022-08-05T12:42:01.396Z,96099.02
2022-08-05T12:44:33.151Z,96092.10
2022-08-05T12:47:28.825Z,96092.29
2022-08-05T12:50:04.683Z,96087.69
2022-08-05T12:52:41.682Z,96090.67
2022-08-05T12:55:22.045Z,96088.31
2022-08-05T12:58:38.644Z,96091.85
2022-08-05T13:02:01.383Z,96091.89
2022-08-05T13:03:32.321Z,96096.61
2022-08-05T13:06:07.439Z,96098.30
2022-08-05T13:08:38.487Z,96102.46
2022-08-05T13:11:07.316Z,96097.05
2022-08-05T13:14:04.754Z,96091.48
2022-08-05T13:16:27.934Z,96091.64
2022-08-05T13:18:59.159Z,96087.27
2022-08-05T13:21:27.754Z,96086.83
2022-08-05T13:23:55.888Z,96084.48
2022-08-05T13:26:29.925Z,96086.59
2022-08-05T13:28:57.536Z,96083.09
2022-08-05T13:32:03.451Z,96080.10
2022-08-05T13:34:21.464Z,96077.05
2022-08-05T13:36:50.649Z,96080.61
2022-08-05T13:40:14.514Z,96082.46
2022-08-05T13:42:04.396Z,96079.96
2022-08-05T13:44:32.705Z,96075.48
2022-08-05T13:47:08.717Z,96071.79
2022-08-05T13:49:36.229Z,96071.25
2022-08-05T13:52:13.362Z,96069.73
2022-08-05T13:54:40.821Z,96063.73
2022-08-05T13:57:09.122Z,96066.54
2022-08-05T13:59:38.306Z,96062.90
2022-08-05T14:02:26.652Z,96061.42
2022-08-05T14:05:15.141Z,96062.95
2022-08-05T14:08:00.389Z,96054.59
2022-08-05T14:10:35.308Z,96048.13
2022-08-05T14:13:07.099Z,96047.58
2022-08-05T14:16:08.603Z,96048.86
2022-08-05T14:18:23.189Z,96048.86
2022-08-05T14:20:52.906Z,96048.31
2022-08-05T14:23:24.557Z,96045.05
2022-08-05T14:25:58.523Z,96049.61
2022-08-05T14:28:28.024Z,96043.65
2022-08-05T14:30:55.995Z,96043.63
2022-08-05T14:33:23.910Z,96043.61
2022-08-05T14:36:05.365Z,96043.42
2022-08-05T14:38:40.661Z,96047.31
2022-08-05T14:41:08.474Z,96048.03
2022-08-05T14:43:57.432Z,96045.90
2022-08-05T14:46:28.098Z,96045.39
2022-08-05T14:48:58.542Z,96038.88
2022-08-05T14:51:30.811Z,96038.53
2022-08-05T14:54:26.114Z,96043.20
2022-08-05T14:56:47.024Z,96044.80
2022-08-05T14:59:14.470Z,96040.58
2022-08-05T15:01:48.640Z,96041.43
2022-08-05T15:04:17.528Z,96042.23
2022-08-05T15:06:49.805Z,96043.56
2022-08-05T15:09:51.130Z,96038.61
2022-08-05T15:12:06.218Z,96036.33
2022-08-05T15:14:48.058Z,96033.41
2022-08-05T15:17:44.748Z,96032.88
2022-08-05T15:20:06.524Z,96030.73
2022-08-05T15:22:37.071Z,96023.13
2022-08-05T15:25:13.834Z,96024.14
2022-08-05T15:27:42.956Z,96022.06
2022-08-05T15:30:19.040Z,96018.90
2022-08-05T15:32:46.612Z,96014.34
2022-08-05T15:35:13.461Z,96013.13
2022-08-05T15:38:32.393Z,96015.46
2022-08-05T15:41:03.534Z,96013.51
2022-08-05T15:43:20.506Z,96013.49
2022-08-05T15:46:00.169Z,96007.20
2022-08-05T15:48:29.247Z,96009.68
2022-08-05T15:50:56.795Z,96009.77
2022-08-05T15:53:26.589Z,96009.34
2022-08-05T15:56:09.160Z,96009.67
2022-08-05T15:58:41.110Z,96011.80
2022-08-05T16:01:16.106Z,96008.22
2022-08-05T16:03:50.449Z,96011.15
2022-08-05T16:06:20.215Z,96008.19
2022-08-05T16:08:50.957Z,96009.52
2022-08-05T16:11:20.843Z,96014.05
2022-08-05T16:14:06.679Z,96006.42
2022-08-05T16:16:35.561Z,96004.92
2022-08-05T16:19:03.222Z,96004.60
2022-08-05T16:22:00.160Z,96010.93
2022-08-05T16:24:40.203Z,96007.16
2022-08-05T16:27:04.346Z,96007.11
2022-08-05T16:29:37.012Z,96007.88
2022-08-05T16:32:09.795Z,96009.73
2022-08-05T16:34:37.182Z,96009.31
2022-08-05T16:38:16.199Z,96011.98
2022-08-05T16:40:05.332Z,96008.95
2022-08-05T16:42:34.703Z,96009.06
2022-08-05T16:45:02.145Z,96008.38
2022-08-05T16:47:53.567Z,96005.94
2022-08-05T16:50:23.475Z,96003.54
2022-08-05T16:52:50.339Z,96002.23
2022-08-05T16:55:17.271Z,96003.41
2022-08-05T16:57:59.780Z,95999.72
2022-08-05T17:00:34.471Z,95996.19
2022-08-05T17:03:15.457Z,95996.05
2022-08-05T17:05:51.773Z,96001.04
2022-08-05T17:08:35.806Z,96007.80
2022-08-05T17:11:12.495Z,96005.34
2022-08-05T17:13:41.519Z,96007.63
2022-08-05T17:16:28.005Z,96009.77
2022-08-05T17:18:55.977Z,96014.99
2022-08-05T17:21:23.804Z,96012.05
2022-08-05T17:24:04.636Z,96013.05
2022-08-05T17:26:37.022Z,96016.56
2022-08-05T17:29:10.222Z,96015.77
2022-08-05T17:31:57.033Z,96017.54
2022-08-05T17:34:30.209Z,96015.98
2022-08-05T17:36:59.806Z,96022.92
2022-08-05T17:39:34.403Z,96022.26
2022-08-05T17:42:17.616Z,96023.05
2022-08-05T17:44:50.103Z,96024.35
2022-08-05T17:47:22.122Z,96026.08
2022-08-05T17:49:56.753Z,96027.14
2022-08-05T17:52:31.612Z,96026.34
2022-08-05T17:54:58.583Z,96024.32
2022-08-05T17:57:25.417Z,96021.20
2022-08-05T18:00:05.541Z,96019.92
2022-08-05T18:02:34.035Z,96021.14
2022-08-05T18:05:07.680Z,96017.59
2022-08-05T18:07:41.210Z,96018.79
2022-08-05T18:10:20.573Z,96024.83
2022-08-05T18:12:49.138Z,96022.90
2022-08-05T18:15:16.015Z,96024.84
2022-08-05T18:17:58.776Z,96021.08
2022-08-05T18:20:32.409Z,96028.27
2022-08-05T18:23:00.659Z,96032.46
2022-08-05T18:25:38.976Z,96035.00
2022-08-05T18:28:09.280Z,96039.65
2022-08-05T18:30:36.438Z,96040.44
2022-08-05T18:33:06.750Z,96039.28
2022-08-05T18:35:59.771Z,96041.48
2022-08-05T18:38:26.127Z,96043.66
2022-08-05T18:41:53.191Z,96046.56
2022-08-05T18:43:42.571Z,96048.95
2022-08-05T18:46:11.191Z,96048.09
2022-08-05T18:48:41.393Z,96050.27
2022-08-05T18:52:02.634Z,96045.66
2022-08-05T18:54:14.546Z,96049.42
2022-08-05T18:56:41.851Z,96050.30
2022-08-05T18:59:42.907Z,96047.54
2022-08-05T19:02:26.778Z,96050.23
2022-08-05T19:05:01.584Z,96055.02
2022-08-05T19:07:45.246Z,96052.42
2022-08-05T19:10:14.432Z,96054.40
2022-08-05T19:12:41.702Z,96053.33
2022-08-05T19:15:54.745Z,96051.61
2022-08-05T19:18:10.313Z,96061.14
2022-08-05T19:20:41.525Z,96063.85
2022-08-05T19:23:22.686Z,96065.60
2022-08-05T19:26:02.128Z,96066.17
2022-08-05T19:28:30.676Z,96069.83
2022-08-05T19:30:57.456Z,96068.44
2022-08-05T19:33:35.748Z,96068.62
2022-08-05T19:36:06.533Z,96068.54
2022-08-05T19:38:35.702Z,96070.70
2022-08-05T19:41:09.008Z,96073.52
2022-08-05T19:44:06.984Z,96079.20
2022-08-05T19:46:30.128Z,96078.90
2022-08-05T19:49:02.816Z,96075.30
2022-08-05T19:52:06.181Z,96079.44
2022-08-05T19:54:27.269Z,96078.67
2022-08-05T19:57:02.615Z,96080.58
2022-08-05T19:59:59.511Z,96081.09
2022-08-05T20:02:20.619Z,96080.20
2022-08-05T20:04:48.357Z,96075.63
2022-08-05T20:07:15.342Z,96078.98
2022-08-05T20:09:54.361Z,96078.20
2022-08-05T20:12:24.246Z,96081.98
2022-08-05T20:14:52.185Z,96080.92
2022-08-05T20:17:23.632Z,96081.78
2022-08-05T20:19:56.801Z,96081.83
2022-08-05T20:22:26.788Z,96081.12
2022-08-05T20:24:55.357Z,96080.14
2022-08-05T20:27:27.425Z,96076.02
2022-08-05T20:30:09.659Z,96070.64
2022-08-05T20:32:36.925Z,96071.71
2022-08-05T20:35:11.951Z,96073.96
2022-08-05T20:38:08.007Z,96074.25
2022-08-05T20:40:26.266Z,96077.00
2022-08-05T20:42:54.905Z,96079.09
2022-08-05T20:45:56.721Z,96074.70
2022-08-05T20:48:16.600Z,96070.86
2022-08-05T20:50:45.279Z,96074.48
2022-08-05T20:53:16.123Z,96071.88
2022-08-05T20:56:08.498Z,96071.87
2022-08-05T20:58:36.849Z,96072.86
2022-08-05T21:01:04.526Z,96072.95
2022-08-05T21:03:34.522Z,96073.56
2022-08-05T21:06:02.188Z,96072.63
2022-08-05T21:08:41.907Z,96073.85
2022-08-05T21:11:12.542Z,96074.55
2022-08-05T21:13:48.200Z,96070.83
2022-08-05T21:16:29.921Z,96072.86
2022-08-05T21:18:59.888Z,96077.47
2022-08-05T21:21:39.365Z,96076.84
2022-08-05T21:24:15.208Z,96076.06
2022-08-05T21:26:50.546Z,96076.56
2022-08-05T21:29:26.201Z,96080.08
2022-08-05T21:31:54.374Z,96076.93
2022-08-05T21:34:22.530Z,96077.26
2022-08-05T21:36:51.195Z,96079.34
2022-08-05T21:39:26.696Z,96080.20
2022-08-05T21:42:01.039Z,96076.36
2022-08-05T21:44:31.075Z,96081.17
2022-08-05T21:46:59.394Z,96080.60
2022-08-05T21:49:58.637Z,96079.90
2022-08-05T21:52:22.768Z,96076.83
2022-08-05T21:54:56.751Z,96076.10
2022-08-05T21:57:32.048Z,96079.40
2022-08-05T22:00:06.083Z,96078.26
2022-08-05T22:02:41.559Z,96080.05
2022-08-05T22:05:10.855Z,96079.77
2022-08-05T22:07:46.715Z,96083.56
2022-08-05T22:10:27.027Z,96084.95
2022-08-05T22:12:57.430Z,96083.52
2022-08-05T22:16:02.035Z,96082.23
2022-08-05T22:18:14.356Z,96083.45
2022-08-05T22:20:41.849Z,96084.13
2022-08-05T22:24:02.843Z,96084.04
2022-08-05T22:26:34.676Z,96082.93
2022-08-05T22:29:02.574Z,96081.77
2022-08-05T22:31:31.012Z,96080.59
2022-08-05T22:34:12.838Z,96082.25
2022-08-05T22:36:47.070Z,96080.61
2022-08-05T22:39:19.445Z,96079.04
2022-08-05T22:42:09.494Z,96080.21
2022-08-05T22:44:35.120Z,96075.46
2022-08-05T22:47:05.104Z,96076.39
2022-08-05T22:50:19.999Z,96074.80
2022-08-05T22:52:30.409Z,96074.45
2022-08-05T22:55:01.543Z,96070.80
2022-08-05T22:57:34.166Z,96071.17
2022-08-05T23:00:07.873Z,96070.02
2022-08-05T23:02:46.337Z,96070.87
2022-08-05T23:05:15.407Z,96069.84
2022-08-05T23:07:45.524Z,96071.45
2022-08-05T23:10:16.161Z,96075.15
2022-08-05T23:12:47.509Z,96073.91
2022-08-05T23:15:18.056Z,96070.73
2022-08-05T23:18:00.903Z,96069.42
2022-08-05T23:20:31.131Z,96072.23
2022-08-05T23:22:58.632Z,96066.65
2022-08-05T23:25:52.052Z,96063.75
2022-08-05T23:28:15.860Z,96065.90
2022-08-05T23:30:53.287Z,96062.88
2022-08-05T23:34:02.922Z,96063.64
2022-08-05T23:36:10.031Z,96062.71
2022-08-05T23:38:37.620Z,96061.52
2022-08-05T23:41:04.305Z,96061.08
2022-08-05T23:44:02.840Z,96061.73
2022-08-05T23:46:20.749Z,96059.39
2022-08-05T23:49:00.791Z,96056.70
2022-08-05T23:51:53.385Z,96050.83
2022-08-05T23:54:29.848Z,96051.34
2022-08-05T23:56:58.304Z,96051.30
